Time;durP1;ratioP1;P1;durP2;ratioP2;P2;SDS_P1;SDS_P2;PMS_P1;PMS_P2;Temp;Humidity;BMP_temperature;BMP_pressure;BME280_temperature;BME280_humidity;BME280_pressure;Samples;Min_cycle;Max_cycle;Signal;HPM_P1;HPM_P2
2023/04/22 00:01:00;;;;;;;109.43;17.90;;;;;;;;;;5098435;28;20480;-38
2023/04/22 00:03:27;;;;;;;86.40;17.23;;;;;;;;;;5093379;28;20057;-38
2023/04/22 00:05:54;;;;;;;108.75;22.35;;;;;;;;;;5092983;28;20094;-39
2023/04/22 00:08:21;;;;;;;105.05;23.63;;;;;;;;;;5094219;28;20036;-37
2023/04/22 00:10:48;;;;;;;97.10;22.05;;;;;;;;;;5094245;28;20059;-39
2023/04/22 00:13:16;;;;;;;62.60;13.23;;;;;;;;;;5093880;28;20485;-38
2023/04/22 00:15:43;;;;;;;86.88;16.58;;;;;;;;;;5094256;28;20082;-37
2023/04/22 00:18:12;;;;;;;99.25;17.30;;;;;;;;;;5099639;28;20024;-37
2023/04/22 00:20:42;;;;;;;83.18;15.82;;;;;;;;;;5100460;28;20047;-38
2023/04/22 00:23:09;;;;;;;100.53;18.52;;;;;;;;;;5103624;28;20469;-38
2023/04/22 00:25:36;;;;;;;90.63;16.70;;;;;;;;;;5102176;28;20119;-37
2023/04/22 00:28:03;;;;;;;81.28;15.70;;;;;;;;;;5103589;28;20040;-38
2023/04/22 00:30:30;;;;;;;101.40;16.80;;;;;;;;;;5102643;28;20081;-36
2023/04/22 00:32:57;;;;;;;99.75;16.52;;;;;;;;;;5101485;28;20450;-37
2023/04/22 00:35:24;;;;;;;106.68;17.50;;;;;;;;;;5102464;28;20473;-38
2023/04/22 00:37:51;;;;;;;147.98;21.25;;;;;;;;;;5102019;28;20115;-37
2023/04/22 00:40:18;;;;;;;100.47;17.05;;;;;;;;;;5099362;28;20043;-37
2023/04/22 00:42:46;;;;;;;99.95;18.15;;;;;;;;;;5103147;28;20052;-37
2023/04/22 00:45:16;;;;;;;92.20;17.48;;;;;;;;;;5097451;28;20036;-39
2023/04/22 00:47:47;;;;;;;96.75;18.63;;;;;;;;;;5101998;28;20027;-38
2023/04/22 00:50:14;;;;;;;89.03;17.85;;;;;;;;;;5107071;28;20480;-37
2023/04/22 00:52:41;;;;;;;92.00;20.17;;;;;;;;;;5108976;28;20106;-37
2023/04/22 00:55:08;;;;;;;135.52;27.10;;;;;;;;;;5102046;28;20914;-38
2023/04/22 00:57:36;;;;;;;123.10;28.85;;;;;;;;;;5105130;28;20046;-37
2023/04/22 01:00:04;;;;;;;114.68;24.83;;;;;;;;;;5111769;28;20031;-38
2023/04/22 01:02:31;;;;;;;111.63;21.75;;;;;;;;;;5112706;28;20043;-37
2023/04/22 01:04:58;;;;;;;120.47;21.70;;;;;;;;;;5109004;28;20020;-38
2023/04/22 01:07:25;;;;;;;112.43;21.27;;;;;;;;;;5097913;28;20044;-37
2023/04/22 01:09:52;;;;;;;104.30;22.17;;;;;;;;;;5105923;28;20032;-37
2023/04/22 01:12:19;;;;;;;101.18;19.55;;;;;;;;;;5101884;28;20027;-39
2023/04/22 01:14:46;;;;;;;82.43;20.42;;;;;;;;;;5102216;28;20051;-39
2023/04/22 01:17:14;;;;;;;106.80;20.70;;;;;;;;;;5097671;28;20024;-38
2023/04/22 01:19:42;;;;;;;88.22;22.88;;;;;;;;;;5107822;28;20036;-38
2023/04/22 01:22:10;;;;;;;100.38;24.52;;;;;;;;;;5098823;28;20089;-38
2023/04/22 01:24:37;;;;;;;100.90;24.85;;;;;;;;;;5107286;28;20104;-37
2023/04/22 01:27:04;;;;;;;95.53;22.63;;;;;;;;;;5108706;28;20421;-38
2023/04/22 01:29:31;;;;;;;77.75;23.20;;;;;;;;;;5096156;28;20058;-37
2023/04/22 01:31:58;;;;;;;86.05;23.60;;;;;;;;;;5093498;28;20146;-37
2023/04/22 01:34:26;;;;;;;89.25;26.65;;;;;;;;;;5100054;27;20386;-38
2023/04/22 01:36:53;;;;;;;84.25;24.75;;;;;;;;;;5101862;28;20031;-38
2023/04/22 01:39:20;;;;;;;82.53;24.30;;;;;;;;;;5093990;28;20461;-39
2023/04/22 01:41:47;;;;;;;68.88;23.60;;;;;;;;;;5099326;28;20042;-39
2023/04/22 01:44:15;;;;;;;69.53;22.88;;;;;;;;;;5095457;28;20020;-38
2023/04/22 01:46:42;;;;;;;62.13;20.77;;;;;;;;;;5101608;28;20138;-39
2023/04/22 01:49:09;;;;;;;63.70;21.45;;;;;;;;;;5092445;28;20379;-38
2023/04/22 01:51:36;;;;;;;70.95;22.48;;;;;;;;;;5098257;28;20470;-39
2023/04/22 01:54:03;;;;;;;73.88;22.17;;;;;;;;;;5096870;28;20036;-38
2023/04/22 01:56:30;;;;;;;77.20;22.90;;;;;;;;;;5091646;28;20024;-38
2023/04/22 01:58:57;;;;;;;70.45;22.42;;;;;;;;;;5091641;28;20032;-38
2023/04/22 02:01:24;;;;;;;64.38;20.95;;;;;;;;;;5102017;28;20130;-38
2023/04/22 02:03:51;;;;;;;64.72;22.40;;;;;;;;;;5103362;28;20032;-38
2023/04/22 02:06:19;;;;;;;67.75;21.50;;;;;;;;;;5100301;28;20486;-39
2023/04/22 02:08:46;;;;;;;63.60;21.17;;;;;;;;;;5095484;28;20077;-40
2023/04/22 02:11:13;;;;;;;60.80;20.95;;;;;;;;;;5098608;28;20028;-39
2023/04/22 02:13:40;;;;;;;79.15;21.00;;;;;;;;;;5094059;28;20477;-38
2023/04/22 02:16:08;;;;;;;56.35;19.90;;;;;;;;;;5102728;28;20110;-38
2023/04/22 02:18:35;;;;;;;72.05;20.83;;;;;;;;;;5112162;28;20389;-39
2023/04/22 02:21:02;;;;;;;70.53;19.80;;;;;;;;;;5100660;28;20172;-41
2023/04/22 02:23:33;;;;;;;56.67;18.77;;;;;;;;;;5095793;28;20027;-39
2023/04/22 02:26:02;;;;;;;66.85;20.52;;;;;;;;;;5103442;28;20055;-39
2023/04/22 02:28:29;;;;;;;70.57;22.30;;;;;;;;;;5091988;28;20035;-39
2023/04/22 02:30:56;;;;;;;65.38;23.35;;;;;;;;;;5091644;28;20447;-39
2023/04/22 02:33:23;;;;;;;75.55;24.02;;;;;;;;;;5091775;28;20089;-41
2023/04/22 02:35:50;;;;;;;79.90;24.88;;;;;;;;;;5098063;28;20039;-41
2023/04/22 02:38:17;;;;;;;63.22;23.33;;;;;;;;;;5102950;28;20106;-40
2023/04/22 02:40:44;;;;;;;62.50;22.55;;;;;;;;;;5095356;28;20123;-39
2023/04/22 02:43:11;;;;;;;66.78;24.08;;;;;;;;;;5094419;28;20035;-39
2023/04/22 02:45:39;;;;;;;66.30;22.20;;;;;;;;;;5099420;28;20039;-40
2023/04/22 02:48:06;;;;;;;59.30;23.10;;;;;;;;;;5091350;28;20044;-39
2023/04/22 02:50:33;;;;;;;60.75;21.25;;;;;;;;;;5101671;28;20027;-39
2023/04/22 02:53:00;;;;;;;63.00;20.88;;;;;;;;;;5101327;28;20028;-38
2023/04/22 02:55:27;;;;;;;63.03;21.17;;;;;;;;;;5103011;27;20027;-38
2023/04/22 02:57:54;;;;;;;49.05;17.95;;;;;;;;;;5100133;28;20038;-39
2023/04/22 03:00:22;;;;;;;57.35;18.88;;;;;;;;;;5093785;28;20032;-39
2023/04/22 03:02:49;;;;;;;52.03;17.42;;;;;;;;;;5091401;28;20043;-39
2023/04/22 03:05:16;;;;;;;60.67;18.95;;;;;;;;;;5091089;28;20030;-38
2023/04/22 03:07:43;;;;;;;72.90;25.23;;;;;;;;;;5093426;28;20051;-38
2023/04/22 03:10:10;;;;;;;58.33;21.63;;;;;;;;;;5097833;28;20587;-43
2023/04/22 03:12:37;;;;;;;56.88;19.10;;;;;;;;;;5100630;28;20032;-42
2023/04/22 03:15:05;;;;;;;51.13;18.77;;;;;;;;;;5098940;28;20455;-41
2023/04/22 03:17:32;;;;;;;61.70;18.35;;;;;;;;;;5100457;28;20032;-41
2023/04/22 03:19:59;;;;;;;51.47;16.48;;;;;;;;;;5099295;28;20473;-40
2023/04/22 03:22:26;;;;;;;46.30;15.18;;;;;;;;;;5098119;28;20111;-43
2023/04/22 03:24:53;;;;;;;45.85;15.63;;;;;;;;;;5099905;28;20705;-41
2023/04/22 03:27:20;;;;;;;38.47;14.30;;;;;;;;;;5099383;28;20406;-43
2023/04/22 03:29:47;;;;;;;44.53;14.85;;;;;;;;;;5101031;28;20051;-41
2023/04/22 03:32:14;;;;;;;35.88;14.05;;;;;;;;;;5099857;28;20020;-40
2023/04/22 03:34:41;;;;;;;41.40;13.30;;;;;;;;;;5101032;28;20028;-41
2023/04/22 03:37:09;;;;;;;36.50;14.23;;;;;;;;;;5099415;28;20051;-40
2023/04/22 03:39:36;;;;;;;39.85;13.35;;;;;;;;;;5099541;28;20042;-40
2023/04/22 03:42:03;;;;;;;34.85;12.27;;;;;;;;;;5100996;28;20080;-40
2023/04/22 03:44:30;;;;;;;31.77;12.75;;;;;;;;;;5099591;28;20486;-41
2023/04/22 03:46:57;;;;;;;32.67;11.73;;;;;;;;;;5099176;28;20042;-40
2023/04/22 03:49:24;;;;;;;42.90;10.27;;;;;;;;;;5101173;28;20031;-40
2023/04/22 03:51:51;;;;;;;41.10;11.38;;;;;;;;;;5099908;28;20114;-40
2023/04/22 03:54:19;;;;;;;33.60;10.48;;;;;;;;;;5098723;28;20055;-39
2023/04/22 03:56:46;;;;;;;31.50;10.57;;;;;;;;;;5103107;28;20024;-40
2023/04/22 03:59:12;;;;;;;29.25;10.07;;;;;;;;;;5103678;28;20028;-40
2023/04/22 04:01:39;;;;;;;31.15;10.57;;;;;;;;;;5104687;28;20054;-42
2023/04/22 04:04:06;;;;;;;29.52;9.35;;;;;;;;;;5103108;28;20388;-40
2023/04/22 04:06:34;;;;;;;26.98;9.45;;;;;;;;;;5102445;28;20047;-40
2023/04/22 04:09:01;;;;;;;29.88;9.73;;;;;;;;;;5104564;28;20036;-40
2023/04/22 04:11:28;;;;;;;24.15;8.80;;;;;;;;;;5103747;28;20034;-40
2023/04/22 04:13:55;;;;;;;28.15;8.63;;;;;;;;;;5103256;28;20034;-39
2023/04/22 04:16:22;;;;;;;29.38;8.55;;;;;;;;;;5104299;28;20381;-40
2023/04/22 04:18:52;;;;;;;24.17;8.50;;;;;;;;;;5103112;28;20111;-41
2023/04/22 04:21:19;;;;;;;22.60;7.70;;;;;;;;;;5102590;28;20514;-40
2023/04/22 04:23:47;;;;;;;27.63;8.10;;;;;;;;;;5102724;28;20024;-40
2023/04/22 04:26:15;;;;;;;25.25;8.07;;;;;;;;;;5103172;28;20028;-40
2023/04/22 04:28:42;;;;;;;21.30;7.55;;;;;;;;;;5102111;28;20117;-40
2023/04/22 04:31:09;;;;;;;29.25;8.32;;;;;;;;;;5103829;28;20534;-40
2023/04/22 04:33:36;;;;;;;21.70;7.70;;;;;;;;;;5104003;28;20386;-41
2023/04/22 04:36:03;;;;;;;21.90;7.68;;;;;;;;;;5102033;28;20354;-40
2023/04/22 04:38:30;;;;;;;24.48;7.90;;;;;;;;;;5101343;28;20062;-41
2023/04/22 04:40:57;;;;;;;16.73;7.03;;;;;;;;;;5102522;28;20040;-41
2023/04/22 04:43:24;;;;;;;21.35;6.80;;;;;;;;;;5104331;28;20110;-40
2023/04/22 04:45:52;;;;;;;17.00;7.35;;;;;;;;;;5102640;28;20035;-42
2023/04/22 04:48:19;;;;;;;21.00;7.97;;;;;;;;;;5104706;28;20493;-40
2023/04/22 04:50:46;;;;;;;22.63;7.18;;;;;;;;;;5103207;28;20032;-40
2023/04/22 04:53:13;;;;;;;15.52;6.68;;;;;;;;;;5101470;28;20481;-40
2023/04/22 04:55:40;;;;;;;15.10;6.80;;;;;;;;;;5102708;28;20225;-41
2023/04/22 04:58:07;;;;;;;23.75;6.72;;;;;;;;;;5103952;28;20545;-41
2023/04/22 05:00:34;;;;;;;21.38;7.47;;;;;;;;;;5096899;28;20032;-41
2023/04/22 05:03:01;;;;;;;20.15;6.72;;;;;;;;;;5102276;28;20103;-40
2023/04/22 05:05:28;;;;;;;15.73;6.07;;;;;;;;;;5103421;28;20035;-40
2023/04/22 05:07:56;;;;;;;19.02;6.53;;;;;;;;;;5103557;28;20048;-39
2023/04/22 05:10:24;;;;;;;17.50;6.18;;;;;;;;;;5102221;28;20378;-40
2023/04/22 05:12:51;;;;;;;19.05;6.15;;;;;;;;;;5103460;28;20092;-40
2023/04/22 05:15:18;;;;;;;19.48;6.03;;;;;;;;;;5106837;28;20443;-40
2023/04/22 05:17:45;;;;;;;17.50;5.72;;;;;;;;;;5100637;28;20118;-40
2023/04/22 05:20:12;;;;;;;25.42;6.20;;;;;;;;;;5093506;28;20453;-41
2023/04/22 05:22:43;;;;;;;15.13;5.80;;;;;;;;;;5092224;28;20036;-40
2023/04/22 05:25:11;;;;;;;16.42;6.20;;;;;;;;;;5093608;28;20036;-40
2023/04/22 05:27:38;;;;;;;15.40;5.45;;;;;;;;;;5093109;28;20066;-40
2023/04/22 05:30:05;;;;;;;17.30;6.22;;;;;;;;;;5093340;28;20024;-40
2023/04/22 05:32:32;;;;;;;18.35;6.43;;;;;;;;;;5093100;28;20071;-40
2023/04/22 05:34:59;;;;;;;16.95;5.50;;;;;;;;;;5093144;28;20076;-40
2023/04/22 05:37:26;;;;;;;14.15;5.40;;;;;;;;;;5093120;28;20097;-41
2023/04/22 05:39:53;;;;;;;16.27;5.22;;;;;;;;;;5093055;28;20032;-40
2023/04/22 05:42:20;;;;;;;12.57;5.13;;;;;;;;;;5092912;28;20028;-40
2023/04/22 05:44:47;;;;;;;14.57;5.57;;;;;;;;;;5092964;28;20032;-40
2023/04/22 05:47:14;;;;;;;20.77;5.50;;;;;;;;;;5092999;28;20032;-40
2023/04/22 05:49:41;;;;;;;20.50;5.30;;;;;;;;;;5092977;28;20047;-40
2023/04/22 05:52:08;;;;;;;18.98;5.75;;;;;;;;;;5092877;28;20436;-40
2023/04/22 05:54:35;;;;;;;12.85;5.00;;;;;;;;;;5092743;28;20359;-40
2023/04/22 05:57:02;;;;;;;16.52;5.50;;;;;;;;;;5092787;28;20024;-40
2023/04/22 05:59:29;;;;;;;15.27;5.15;;;;;;;;;;5092765;28;20023;-40
2023/04/22 06:01:56;;;;;;;10.55;4.97;;;;;;;;;;5091179;28;20044;-40
2023/04/22 06:04:23;;;;;;;10.70;4.50;;;;;;;;;;5092528;28;20494;-40
2023/04/22 06:06:52;;;;;;;12.70;5.28;;;;;;;;;;5092344;28;20059;-40
2023/04/22 06:09:20;;;;;;;13.82;5.43;;;;;;;;;;5092847;28;20063;-41
2023/04/22 06:11:47;;;;;;;12.23;4.75;;;;;;;;;;5092556;28;20101;-40
2023/04/22 06:14:14;;;;;;;11.20;4.43;;;;;;;;;;5092474;28;20022;-40
2023/04/22 06:16:41;;;;;;;14.57;4.68;;;;;;;;;;5092345;28;20031;-40
2023/04/22 06:19:08;;;;;;;11.93;4.75;;;;;;;;;;5091733;28;20367;-39
2023/04/22 06:21:37;;;;;;;13.95;4.72;;;;;;;;;;5092526;28;20060;-39
2023/04/22 06:24:04;;;;;;;16.02;4.90;;;;;;;;;;5092213;28;20067;-39
2023/04/22 06:26:32;;;;;;;11.80;4.05;;;;;;;;;;5092084;28;20035;-39
2023/04/22 06:28:59;;;;;;;10.77;5.03;;;;;;;;;;5092308;28;20538;-39
2023/04/22 06:31:26;;;;;;;20.30;5.00;;;;;;;;;;5092212;28;20031;-39
2023/04/22 06:33:53;;;;;;;12.32;4.18;;;;;;;;;;5092124;28;20530;-38
2023/04/22 06:36:20;;;;;;;11.73;4.68;;;;;;;;;;5091887;28;20799;-39
2023/04/22 06:38:46;;;;;;;13.18;4.35;;;;;;;;;;5092111;28;20031;-39
2023/04/22 06:41:14;;;;;;;11.18;4.30;;;;;;;;;;5092055;28;20557;-39
2023/04/22 06:43:41;;;;;;;14.90;4.40;;;;;;;;;;5092129;28;20056;-40
2023/04/22 06:46:08;;;;;;;9.77;4.32;;;;;;;;;;5091917;28;20044;-39
2023/04/22 06:48:34;;;;;;;12.52;4.15;;;;;;;;;;5091973;28;20428;-40
2023/04/22 06:51:01;;;;;;;11.15;4.18;;;;;;;;;;5091902;28;20033;-39
2023/04/22 06:53:28;;;;;;;15.45;4.32;;;;;;;;;;5092002;28;20134;-39
2023/04/22 06:55:55;;;;;;;9.48;3.88;;;;;;;;;;5091879;28;20020;-40
2023/04/22 06:58:22;;;;;;;10.70;4.20;;;;;;;;;;5091836;28;20020;-39
2023/04/22 07:00:49;;;;;;;9.35;3.72;;;;;;;;;;5091764;28;20055;-39
2023/04/22 07:03:16;;;;;;;9.48;3.85;;;;;;;;;;5091758;28;20031;-39
2023/04/22 07:05:43;;;;;;;11.43;4.10;;;;;;;;;;5091708;28;20020;-39
2023/04/22 07:08:10;;;;;;;14.50;4.28;;;;;;;;;;5091589;28;20055;-40
2023/04/22 07:10:37;;;;;;;9.52;3.80;;;;;;;;;;5091727;28;20558;-39
2023/04/22 07:13:04;;;;;;;10.90;4.07;;;;;;;;;;5091610;28;20477;-39
2023/04/22 07:15:31;;;;;;;8.10;3.75;;;;;;;;;;5091671;28;20029;-39
2023/04/22 07:17:58;;;;;;;11.38;3.97;;;;;;;;;;5091433;28;20128;-39
2023/04/22 07:20:25;;;;;;;8.32;4.25;;;;;;;;;;5090235;28;20402;-39
2023/04/22 07:22:52;;;;;;;7.55;3.60;;;;;;;;;;5091645;28;20028;-39
2023/04/22 07:25:19;;;;;;;7.75;3.55;;;;;;;;;;5091371;28;20024;-39
2023/04/22 07:27:46;;;;;;;9.32;4.13;;;;;;;;;;5091552;28;20024;-40
2023/04/22 07:30:13;;;;;;;10.13;3.90;;;;;;;;;;5094782;28;20028;-39
2023/04/22 07:32:40;;;;;;;10.40;4.07;;;;;;;;;;5095684;28;20080;-39
2023/04/22 07:35:07;;;;;;;7.47;3.53;;;;;;;;;;5095536;28;20077;-39
2023/04/22 07:37:34;;;;;;;8.75;3.78;;;;;;;;;;5095595;28;20046;-40
2023/04/22 07:40:01;;;;;;;11.13;3.58;;;;;;;;;;5095498;28;20048;-39
2023/04/22 07:42:28;;;;;;;9.38;3.42;;;;;;;;;;5095530;28;20048;-39
2023/04/22 07:44:55;;;;;;;8.63;3.60;;;;;;;;;;5095365;28;20039;-41
2023/04/22 07:47:22;;;;;;;9.00;3.67;;;;;;;;;;5095524;28;20024;-39
2023/04/22 07:49:49;;;;;;;8.15;3.25;;;;;;;;;;5095612;28;20058;-39
2023/04/22 07:52:18;;;;;;;7.20;3.33;;;;;;;;;;5095360;28;20020;-39
2023/04/22 07:54:44;;;;;;;9.27;3.28;;;;;;;;;;5095445;28;20073;-39
2023/04/22 07:57:12;;;;;;;7.80;3.50;;;;;;;;;;5095294;28;20019;-39
2023/04/22 07:59:39;;;;;;;9.77;3.30;;;;;;;;;;5095154;28;20029;-39
2023/04/22 08:02:06;;;;;;;12.45;3.60;;;;;;;;;;5095034;28;20032;-39
2023/04/22 08:04:33;;;;;;;10.57;3.17;;;;;;;;;;5095020;28;20042;-39
2023/04/22 08:07:02;;;;;;;9.80;3.30;;;;;;;;;;5094833;28;20529;-39
2023/04/22 08:09:29;;;;;;;10.30;3.55;;;;;;;;;;5094839;28;20035;-39
2023/04/22 08:11:56;;;;;;;9.70;3.30;;;;;;;;;;5094910;28;20028;-39
2023/04/22 08:14:24;;;;;;;10.55;3.58;;;;;;;;;;5094788;28;20438;-39
2023/04/22 08:16:51;;;;;;;10.68;3.78;;;;;;;;;;5094804;28;20115;-39
2023/04/22 08:19:19;;;;;;;9.60;3.40;;;;;;;;;;5094763;28;20020;-40
2023/04/22 08:21:47;;;;;;;19.73;3.80;;;;;;;;;;5094796;28;20537;-38
2023/04/22 08:24:14;;;;;;;12.63;3.28;;;;;;;;;;5094757;28;20038;-39
2023/04/22 08:26:42;;;;;;;9.93;3.40;;;;;;;;;;5094663;28;20031;-39
2023/04/22 08:29:09;;;;;;;7.57;3.00;;;;;;;;;;5094609;28;20095;-39
2023/04/22 08:31:36;;;;;;;10.48;3.60;;;;;;;;;;5094540;28;20394;-38
2023/04/22 08:34:03;;;;;;;16.50;3.40;;;;;;;;;;5094577;28;20020;-39
2023/04/22 08:36:30;;;;;;;8.70;3.22;;;;;;;;;;5094569;28;20065;-39
2023/04/22 08:38:57;;;;;;;10.20;3.60;;;;;;;;;;5094445;28;20056;-39
2023/04/22 08:41:26;;;;;;;12.55;3.60;;;;;;;;;;5093604;28;20374;-39
2023/04/22 08:43:53;;;;;;;7.75;3.30;;;;;;;;;;5094330;28;20020;-39
2023/04/22 08:46:22;;;;;;;7.70;3.45;;;;;;;;;;5094414;28;20028;-39
2023/04/22 08:48:50;;;;;;;10.27;3.30;;;;;;;;;;5094339;28;20070;-39
2023/04/22 08:51:17;;;;;;;10.45;3.30;;;;;;;;;;5094197;28;20051;-39
2023/04/22 08:53:45;;;;;;;8.50;3.22;;;;;;;;;;5094127;28;20444;-39
2023/04/22 08:56:15;;;;;;;10.68;3.75;;;;;;;;;;5094002;28;20028;-40
2023/04/22 08:58:42;;;;;;;8.73;3.67;;;;;;;;;;5094048;28;20028;-39
2023/04/22 09:01:09;;;;;;;11.32;3.70;;;;;;;;;;5093909;28;20493;-39
2023/04/22 09:03:39;;;;;;;9.50;3.70;;;;;;;;;;5093906;28;20058;-38
2023/04/22 09:06:07;;;;;;;10.40;3.10;;;;;;;;;;5093558;28;20043;-39
2023/04/22 09:08:35;;;;;;;7.88;3.33;;;;;;;;;;5093900;28;20725;-40
2023/04/22 09:11:03;;;;;;;7.55;3.15;;;;;;;;;;5092491;28;20373;-39
2023/04/22 09:13:30;;;;;;;11.10;3.00;;;;;;;;;;5093899;28;20024;-38
2023/04/22 09:15:57;;;;;;;6.18;2.90;;;;;;;;;;5093649;28;20027;-39
2023/04/22 09:18:24;;;;;;;5.90;3.20;;;;;;;;;;5093758;28;20547;-38
2023/04/22 09:20:55;;;;;;;10.07;3.38;;;;;;;;;;5093583;28;20032;-39
2023/04/22 09:23:22;;;;;;;8.05;3.10;;;;;;;;;;5096649;28;20027;-38
2023/04/22 09:25:49;;;;;;;10.88;2.80;;;;;;;;;;5112690;28;20028;-40
2023/04/22 09:28:19;;;;;;;11.23;3.05;;;;;;;;;;5113078;28;20577;-39
2023/04/22 09:30:46;;;;;;;9.13;3.35;;;;;;;;;;5113913;28;20111;-39
2023/04/22 09:33:14;;;;;;;12.00;3.45;;;;;;;;;;5113779;28;20020;-39
2023/04/22 09:35:42;;;;;;;12.70;3.35;;;;;;;;;;5113525;28;20028;-39
2023/04/22 09:38:10;;;;;;;9.18;3.17;;;;;;;;;;5113653;28;20393;-39
2023/04/22 09:40:38;;;;;;;8.93;2.97;;;;;;;;;;5113586;28;20092;-38
2023/04/22 09:43:06;;;;;;;10.55;3.08;;;;;;;;;;5113583;28;20047;-38
2023/04/22 09:45:34;;;;;;;10.20;3.35;;;;;;;;;;5113274;28;20024;-39
2023/04/22 09:48:03;;;;;;;13.48;3.20;;;;;;;;;;5113474;28;20015;-39
2023/04/22 09:50:30;;;;;;;11.50;2.83;;;;;;;;;;5113193;28;20050;-39
2023/04/22 09:53:00;;;;;;;9.55;3.25;;;;;;;;;;5112230;28;20023;-39
2023/04/22 09:55:28;;;;;;;11.40;3.50;;;;;;;;;;5111914;28;20439;-39
2023/04/22 09:57:56;;;;;;;15.98;3.58;;;;;;;;;;5103109;28;20709;-39
2023/04/22 10:00:24;;;;;;;11.27;3.08;;;;;;;;;;5101415;28;20039;-40
2023/04/22 10:02:51;;;;;;;12.50;3.15;;;;;;;;;;5100799;28;20091;-39
2023/04/22 10:05:18;;;;;;;8.45;3.50;;;;;;;;;;5101091;28;20032;-38
2023/04/22 10:07:45;;;;;;;11.85;3.15;;;;;;;;;;5102455;28;20063;-38
2023/04/22 10:10:12;;;;;;;8.75;3.08;;;;;;;;;;5101334;28;20023;-39
2023/04/22 10:12:39;;;;;;;10.98;3.30;;;;;;;;;;5102134;28;20415;-40
2023/04/22 10:15:07;;;;;;;11.98;3.20;;;;;;;;;;5104532;28;20397;-39
2023/04/22 10:17:37;;;;;;;11.27;3.22;;;;;;;;;;5100468;28;20028;-38
2023/04/22 10:20:06;;;;;;;12.40;2.47;;;;;;;;;;5096665;28;20069;-38
2023/04/22 10:22:34;;;;;;;12.25;3.10;;;;;;;;;;5103279;28;20394;-39
2023/04/22 10:25:01;;;;;;;14.68;3.50;;;;;;;;;;5097129;28;20514;-41
2023/04/22 10:27:28;;;;;;;9.82;3.38;;;;;;;;;;5092395;28;20382;-41
2023/04/22 10:29:56;;;;;;;9.60;3.42;;;;;;;;;;5092259;28;20035;-41
2023/04/22 10:32:24;;;;;;;12.70;3.78;;;;;;;;;;5092307;28;20095;-40
2023/04/22 10:35:07;;;;;;;11.15;3.25;;;;;;;;;;5097518;28;20110;-40
2023/04/22 10:37:33;;;;;;;;;;;;;;;;;;5112109;28;20028;-40
2023/04/22 10:40:15;;;;;;;8.98;2.75;;;;;;;;;;5109191;28;19912;-40
2023/04/22 10:42:43;;;;;;;10.27;2.90;;;;;;;;;;5100862;28;20028;-40
2023/04/22 10:45:13;;;;;;;10.98;3.20;;;;;;;;;;5103049;28;20156;-40
2023/04/22 10:47:43;;;;;;;14.32;2.97;;;;;;;;;;5101071;28;20902;-39
2023/04/22 10:50:27;;;;;;;9.57;2.80;;;;;;;;;;5105869;28;20036;-40
2023/04/22 10:52:58;;;;;;;12.00;3.28;;;;;;;;;;5091947;28;20048;-41
2023/04/22 10:55:25;;;;;;;14.60;2.83;;;;;;;;;;5091847;28;20099;-40
2023/04/22 10:57:54;;;;;;;14.15;3.28;;;;;;;;;;5091896;28;20137;-40
2023/04/22 11:00:21;;;;;;;11.20;2.80;;;;;;;;;;5106803;28;20031;-41
2023/04/22 11:02:52;;;;;;;9.70;2.78;;;;;;;;;;5111679;28;20039;-40
2023/04/22 11:05:20;;;;;;;9.82;3.15;;;;;;;;;;5111617;28;20113;-40
2023/04/22 11:07:48;;;;;;;10.25;2.75;;;;;;;;;;5111350;28;20060;-39
2023/04/22 11:10:30;;;;;;;8.48;2.38;;;;;;;;;;5111998;28;20024;-40
2023/04/22 11:12:57;;;;;;;9.88;2.85;;;;;;;;;;5110567;28;20039;-40
2023/04/22 11:15:25;;;;;;;8.90;2.85;;;;;;;;;;5111820;28;20036;-40
2023/04/22 11:17:54;;;;;;;9.02;2.55;;;;;;;;;;5112055;28;20016;-40
2023/04/22 11:20:21;;;;;;;9.60;2.47;;;;;;;;;;5111951;28;20036;-40
2023/04/22 11:22:50;;;;;;;9.40;2.58;;;;;;;;;;5111961;28;20465;-40
2023/04/22 11:25:18;;;;;;;12.00;2.75;;;;;;;;;;5094773;28;20028;-40
2023/04/22 11:27:45;;;;;;;10.15;2.42;;;;;;;;;;5091598;28;20034;-40
2023/04/22 11:30:14;;;;;;;11.35;2.67;;;;;;;;;;5095443;28;20378;-39
2023/04/22 11:32:45;;;;;;;10.13;2.67;;;;;;;;;;5111789;28;20389;-40
2023/04/22 11:35:13;;;;;;;8.55;2.88;;;;;;;;;;5094413;28;20033;-40
2023/04/22 11:37:40;;;;;;;7.68;2.88;;;;;;;;;;5091496;28;20024;-40
2023/04/22 11:40:12;;;;;;;5.85;2.17;;;;;;;;;;5099644;28;20020;-40
2023/04/22 11:42:39;;;;;;;9.55;2.58;;;;;;;;;;5109513;28;20024;-40
2023/04/22 11:45:07;;;;;;;7.00;2.00;;;;;;;;;;5101813;28;20165;-41
2023/04/22 11:47:34;;;;;;;8.80;2.25;;;;;;;;;;5101568;28;20106;-39
2023/04/22 11:50:08;;;;;;;10.10;2.67;;;;;;;;;;5099267;28;20493;-40
2023/04/22 11:52:45;;;;;;;9.43;2.38;;;;;;;;;;5092906;28;20093;-40
2023/04/22 11:55:16;;;;;;;8.30;2.35;;;;;;;;;;5095606;28;20036;-40
2023/04/22 11:57:43;;;;;;;12.13;2.50;;;;;;;;;;5094473;28;20028;-40
2023/04/22 12:00:16;;;;;;;12.85;2.40;;;;;;;;;;5095607;28;20107;-39
2023/04/22 12:02:44;;;;;;;10.80;2.85;;;;;;;;;;5097145;28;20055;-40
2023/04/22 12:05:11;;;;;;;13.07;2.65;;;;;;;;;;5093369;28;20016;-39
2023/04/22 12:07:39;;;;;;;13.00;3.10;;;;;;;;;;5102370;28;20075;-41
2023/04/22 12:10:06;;;;;;;11.15;2.28;;;;;;;;;;5091818;28;20024;-39
2023/04/22 12:12:35;;;;;;;20.42;3.28;;;;;;;;;;5098988;28;20078;-40
2023/04/22 12:15:13;;;;;;;19.27;2.88;;;;;;;;;;5098804;28;20105;-40
2023/04/22 12:17:40;;;;;;;24.38;2.97;;;;;;;;;;5099780;28;20114;-38
2023/04/22 12:20:11;;;;;;;16.85;2.78;;;;;;;;;;5103678;28;20828;-38
2023/04/22 12:22:39;;;;;;;20.70;3.22;;;;;;;;;;5102937;28;20032;-39
2023/04/22 12:25:06;;;;;;;16.80;3.20;;;;;;;;;;5100014;28;20036;-38
2023/04/22 12:27:33;;;;;;;25.17;3.10;;;;;;;;;;5104860;28;20678;-39
2023/04/22 12:30:00;;;;;;;14.80;2.75;;;;;;;;;;5102366;28;20028;-39
2023/04/22 12:32:27;;;;;;;12.88;3.15;;;;;;;;;;5104114;28;20024;-39
2023/04/22 12:34:55;;;;;;;10.23;2.90;;;;;;;;;;5101748;28;20032;-39
2023/04/22 12:37:22;;;;;;;13.70;3.20;;;;;;;;;;5099297;28;20052;-39
2023/04/22 12:39:49;;;;;;;21.75;3.10;;;;;;;;;;5099279;28;20047;-38
2023/04/22 12:42:16;;;;;;;19.33;2.85;;;;;;;;;;5099704;28;20040;-39
2023/04/22 12:44:43;;;;;;;12.23;2.78;;;;;;;;;;5099169;28;20023;-39
2023/04/22 12:47:10;;;;;;;16.65;2.85;;;;;;;;;;5098890;28;20038;-38
2023/04/22 12:49:38;;;;;;;22.25;3.20;;;;;;;;;;5102429;28;20529;-39
2023/04/22 12:52:05;;;;;;;14.77;2.78;;;;;;;;;;5101717;28;20024;-39
2023/04/22 12:54:32;;;;;;;12.05;2.75;;;;;;;;;;5094314;28;20032;-40
2023/04/22 12:57:00;;;;;;;10.05;3.35;;;;;;;;;;5101376;28;20038;-39
2023/04/22 12:59:27;;;;;;;15.95;2.50;;;;;;;;;;5103731;28;20035;-39
2023/04/22 13:01:54;;;;;;;14.73;2.88;;;;;;;;;;5102260;28;20036;-39
2023/04/22 13:04:21;;;;;;;20.15;3.20;;;;;;;;;;5102288;28;20099;-39
2023/04/22 13:06:54;;;;;;;18.98;3.10;;;;;;;;;;5103265;28;20085;-39
2023/04/22 13:09:25;;;;;;;14.20;2.67;;;;;;;;;;5100799;28;20110;-42
2023/04/22 13:11:52;;;;;;;12.55;2.63;;;;;;;;;;5102611;28;20434;-40
2023/04/22 13:14:20;;;;;;;14.68;3.03;;;;;;;;;;5093237;28;20031;-38
2023/04/22 13:16:47;;;;;;;10.88;3.25;;;;;;;;;;5094604;28;20034;-42
2023/04/22 13:19:14;;;;;;;14.55;3.20;;;;;;;;;;5102628;28;20081;-39
2023/04/22 13:21:41;;;;;;;20.20;2.80;;;;;;;;;;5101376;28;20114;-40
2023/04/22 13:24:08;;;;;;;26.67;3.33;;;;;;;;;;5097057;28;20036;-39
2023/04/22 13:26:36;;;;;;;17.48;3.08;;;;;;;;;;5095775;28;20034;-39
2023/04/22 13:29:05;;;;;;;19.92;3.28;;;;;;;;;;5098121;28;20371;-39
2023/04/22 13:31:32;;;;;;;24.45;3.80;;;;;;;;;;5099327;28;20027;-37
2023/04/22 13:33:59;;;;;;;22.77;3.22;;;;;;;;;;5101918;28;20452;-39
2023/04/22 13:36:26;;;;;;;26.30;3.92;;;;;;;;;;5100293;28;20036;-39
2023/04/22 13:38:53;;;;;;;21.98;3.83;;;;;;;;;;5103117;28;20076;-39
2023/04/22 13:41:20;;;;;;;29.40;3.85;;;;;;;;;;5099735;28;20115;-40
2023/04/22 13:43:52;;;;;;;24.00;3.63;;;;;;;;;;5097469;28;20070;-40
2023/04/22 13:46:20;;;;;;;24.52;3.72;;;;;;;;;;5096694;28;20055;-39
2023/04/22 13:48:48;;;;;;;27.00;3.70;;;;;;;;;;5113425;28;20028;-39
2023/04/22 13:51:15;;;;;;;22.55;3.20;;;;;;;;;;5096907;28;20028;-39
2023/04/22 13:53:42;;;;;;;18.88;3.30;;;;;;;;;;5092759;28;20028;-39
2023/04/22 13:56:09;;;;;;;22.23;3.20;;;;;;;;;;5092939;28;20024;-39
2023/04/22 13:58:36;;;;;;;17.77;2.92;;;;;;;;;;5093127;28;20035;-39
2023/04/22 14:01:03;;;;;;;17.83;3.08;;;;;;;;;;5092913;28;20067;-39
2023/04/22 14:03:30;;;;;;;22.70;3.45;;;;;;;;;;5092737;28;20024;-39
2023/04/22 14:05:57;;;;;;;14.18;2.85;;;;;;;;;;5092575;28;20103;-38
2023/04/22 14:08:24;;;;;;;21.48;3.20;;;;;;;;;;5092840;28;20031;-39
2023/04/22 14:10:51;;;;;;;16.00;3.50;;;;;;;;;;5092385;28;20028;-38
2023/04/22 14:13:18;;;;;;;22.65;3.38;;;;;;;;;;5091286;28;20038;-38
2023/04/22 14:15:45;;;;;;;33.88;3.47;;;;;;;;;;5092614;28;20032;-37
2023/04/22 14:18:12;;;;;;;12.73;3.05;;;;;;;;;;5092505;28;20024;-38
2023/04/22 14:20:40;;;;;;;16.58;3.22;;;;;;;;;;5076967;28;20054;-38
2023/04/22 14:23:06;;;;;;;14.30;2.90;;;;;;;;;;5085373;28;20115;-38
2023/04/22 14:25:34;;;;;;;23.60;3.88;;;;;;;;;;5085631;28;20012;-40
2023/04/22 14:28:02;;;;;;;17.67;3.38;;;;;;;;;;5081731;28;20033;-39
2023/04/22 14:30:29;;;;;;;16.13;2.97;;;;;;;;;;5083054;28;20024;-39